This is the latest recevied weather packets stored in our database for station/object NM5PB. If no packets are shown the sender has not sent any weather packets the latest 10 day(s).
| Time | Temp. | Humidity | Pressure | Rain* | Wind** | Luminosity | Snow |
|---|---|---|---|---|---|---|---|
| 1777630264 | 3.89° C | 75% | - | 0 mm | - | - | - |
| 1777629664 | 3.89° C | 77% | - | 0 mm | - | - | - |
| 1777629064 | 3.33° C | 76% | - | 0 mm | - | - | - |
| 1777628464 | 3.33° C | 78% | - | 0 mm | - | - | - |
| 1777627864 | 2.22° C | 84% | - | 0 mm | - | - | - |
| 1777627264 | 2.22° C | 84% | - | 0 mm | - | - | - |
| 1777626664 | 2.22° C | 83% | - | 0 mm | - | - | - |
| 1777626064 | 1.67° C | 85% | - | 0 mm | - | - | - |
| 1777625464 | 1.67° C | 85% | - | 0 mm | - | - | - |
| 1777624864 | 2.22° C | 84% | - | 0 mm | - | - | - |
| 1777624264 | 2.22° C | 84% | - | 0 mm | - | - | - |
| 1777623664 | 2.22° C | 84% | - | 0 mm | - | - | - |
| 1777623064 | 1.67° C | 85% | - | 0 mm | - | - | - |
| 1777622464 | 1.67° C | 87% | - | 0 mm | - | - | - |
| 1777621864 | 1.67° C | 84% | - | 0 mm | - | - | - |
| 1777621264 | 1.67° C | 83% | - | 0 mm | - | - | - |
| 1777620664 | 1.11° C | 84% | - | 0 mm | - | - | - |
| 1777620064 | 1.67° C | 84% | - | 0 mm | - | - | - |
| 1777619464 | 2.22° C | 82% | - | 0 mm | - | - | - |
| 1777618864 | 2.78° C | 80% | - | 0 mm | - | - | - |
| 1777618264 | 3.89° C | 74% | - | 0 mm | - | - | - |
| 1777617664 | 3.89° C | 73% | - | 0 mm | - | - | - |
| 1777617064 | 3.89° C | 70% | - | 0 mm | - | - | - |
| 1777616464 | 3.89° C | 69% | - | 0 mm | - | - | - |
| 1777615864 | 4.44° C | 69% | - | 0 mm | - | - | - |
* Rain latest hour (hover to see other rain measurements)
** Current wind speed in m/s (hover to see current wind gust speed)